createdAt,value
2022-11-13T00:00:59.829Z,5.70
2022-11-13T00:03:30.601Z,5.80
2022-11-13T00:06:01.705Z,5.80
2022-11-13T00:08:30.615Z,6.00
2022-11-13T00:11:03.885Z,6.00
2022-11-13T00:13:32.380Z,6.10
2022-11-13T00:16:00.894Z,6.00
2022-11-13T00:18:30.319Z,6.00
2022-11-13T00:20:59.332Z,6.00
2022-11-13T00:23:27.466Z,6.00
2022-11-13T00:25:55.583Z,6.00
2022-11-13T00:28:25.418Z,6.00
2022-11-13T00:30:59.024Z,6.10
2022-11-13T00:33:55.081Z,6.00
2022-11-13T00:36:19.949Z,6.00
2022-11-13T00:38:48.099Z,5.90
2022-11-13T00:41:16.179Z,5.90
2022-11-13T00:43:45.904Z,6.10
2022-11-13T00:46:14.039Z,5.90
2022-11-13T00:48:42.139Z,6.00
2022-11-13T00:51:10.218Z,6.00
2022-11-13T00:53:38.318Z,6.00
2022-11-13T00:56:06.842Z,6.10
2022-11-13T00:58:35.025Z,6.00
2022-11-13T01:01:08.435Z,6.00
2022-11-13T01:03:36.779Z,6.10
2022-11-13T01:06:10.987Z,6.10
2022-11-13T01:08:39.266Z,6.20
2022-11-13T01:11:09.606Z,6.20
2022-11-13T01:13:40.596Z,6.10
2022-11-13T01:16:11.949Z,6.20
2022-11-13T01:18:41.391Z,6.30
2022-11-13T01:21:10.764Z,6.20
2022-11-13T01:23:38.973Z,6.10
2022-11-13T01:26:08.744Z,6.10
2022-11-13T01:28:36.873Z,6.10
2022-11-13T01:31:06.060Z,6.10
2022-11-13T01:33:35.764Z,6.10
2022-11-13T01:36:04.786Z,6.10
2022-11-13T01:38:36.281Z,6.10
2022-11-13T01:41:05.573Z,6.10
2022-11-13T01:43:35.284Z,6.30
2022-11-13T01:46:07.568Z,6.40
2022-11-13T01:48:39.697Z,6.50
2022-11-13T01:51:10.832Z,6.50
2022-11-13T01:53:42.249Z,6.60
2022-11-13T01:56:10.557Z,6.60
2022-11-13T01:58:39.214Z,6.60
2022-11-13T02:01:07.581Z,6.50
2022-11-13T02:03:37.037Z,6.60
2022-11-13T02:06:05.404Z,6.70
2022-11-13T02:08:33.722Z,6.60
2022-11-13T02:11:04.772Z,6.30
2022-11-13T02:13:33.424Z,6.20
2022-11-13T02:16:02.109Z,6.00
2022-11-13T02:18:31.395Z,5.90
2022-11-13T02:21:07.126Z,5.80
2022-11-13T02:23:38.478Z,5.90
2022-11-13T02:26:08.681Z,6.00
2022-11-13T02:28:36.742Z,6.00
2022-11-13T02:31:09.034Z,6.10
2022-11-13T02:33:37.480Z,6.10
2022-11-13T02:36:07.014Z,6.00
2022-11-13T02:38:36.336Z,5.90
2022-11-13T02:41:04.444Z,5.80
2022-11-13T02:43:34.114Z,5.70
2022-11-13T02:46:02.309Z,5.70
2022-11-13T02:48:30.700Z,5.80
2022-11-13T02:50:59.057Z,5.70
2022-11-13T02:53:27.312Z,5.70
2022-11-13T02:55:55.382Z,5.60
2022-11-13T02:58:25.340Z,5.50
2022-11-13T03:00:55.045Z,5.50
2022-11-13T03:03:48.071Z,5.60
2022-11-13T03:06:11.413Z,5.60
2022-11-13T03:08:39.755Z,5.60
2022-11-13T03:11:08.639Z,5.50
2022-11-13T03:13:36.937Z,5.50
2022-11-13T03:16:14.076Z,5.50
2022-11-13T03:18:42.170Z,5.30
2022-11-13T03:21:11.391Z,5.20
2022-11-13T03:23:41.750Z,5.10
2022-11-13T03:26:12.525Z,5.00
2022-11-13T03:28:40.664Z,4.90
2022-11-13T03:31:08.790Z,4.90
2022-11-13T03:33:38.301Z,4.80
2022-11-13T03:36:06.846Z,4.70
2022-11-13T03:38:35.149Z,4.70
2022-11-13T03:41:03.271Z,4.80
2022-11-13T03:43:31.372Z,4.70
2022-11-13T03:45:59.449Z,4.70
2022-11-13T03:48:33.409Z,4.70
2022-11-13T03:51:03.225Z,4.70
2022-11-13T03:53:31.409Z,4.60
2022-11-13T03:55:59.783Z,4.60
2022-11-13T03:58:28.238Z,4.50
2022-11-13T04:00:57.044Z,4.40
2022-11-13T04:03:25.153Z,4.30
2022-11-13T04:05:53.298Z,4.30
2022-11-13T04:08:22.880Z,4.40
2022-11-13T04:10:51.036Z,4.30
2022-11-13T04:13:19.148Z,4.30
2022-11-13T04:15:47.197Z,4.30
2022-11-13T04:18:15.442Z,4.40
2022-11-13T04:20:43.522Z,4.50
2022-11-13T04:23:12.820Z,4.40
2022-11-13T04:25:42.292Z,4.40
2022-11-13T04:28:10.813Z,4.50
2022-11-13T04:30:39.186Z,4.50
2022-11-13T04:33:07.705Z,4.60
2022-11-13T04:35:36.192Z,4.60
2022-11-13T04:38:04.369Z,4.60
2022-11-13T04:40:32.384Z,4.50
2022-11-13T04:43:00.944Z,4.50
2022-11-13T04:45:29.395Z,4.40
2022-11-13T04:47:57.446Z,4.50
2022-11-13T04:50:25.887Z,4.40
2022-11-13T04:52:56.729Z,4.10
2022-11-13T04:55:24.817Z,4.20
2022-11-13T04:57:56.829Z,4.10
2022-11-13T05:00:26.369Z,4.10
2022-11-13T05:02:54.620Z,4.10
2022-11-13T05:05:22.710Z,4.00
2022-11-13T05:07:50.878Z,4.00
2022-11-13T05:10:19.348Z,4.00
2022-11-13T05:12:47.416Z,3.80
2022-11-13T05:15:15.738Z,3.80
2022-11-13T05:17:45.173Z,3.90
2022-11-13T05:20:16.019Z,4.00
2022-11-13T05:22:44.288Z,3.70
2022-11-13T05:25:12.413Z,3.60
2022-11-13T05:27:40.476Z,3.80
2022-11-13T05:30:09.428Z,3.70
2022-11-13T05:32:37.783Z,3.50
2022-11-13T05:35:07.706Z,3.70
2022-11-13T05:37:35.777Z,3.60
2022-11-13T05:40:03.884Z,3.80
2022-11-13T05:42:31.955Z,3.90
2022-11-13T05:45:00.055Z,3.80
2022-11-13T05:47:28.095Z,3.70
2022-11-13T05:49:56.229Z,3.70
2022-11-13T05:52:25.898Z,3.80
2022-11-13T05:54:53.968Z,3.80
2022-11-13T05:57:22.125Z,3.70
2022-11-13T05:59:53.057Z,3.60
2022-11-13T06:02:21.197Z,3.30
2022-11-13T06:04:50.667Z,3.40
2022-11-13T06:07:19.784Z,3.40
2022-11-13T06:09:49.234Z,3.50
2022-11-13T06:12:17.507Z,3.50
2022-11-13T06:14:45.553Z,3.50
2022-11-13T06:17:13.686Z,3.50
2022-11-13T06:19:41.901Z,3.20
2022-11-13T06:22:09.995Z,3.10
2022-11-13T06:24:38.275Z,3.30
2022-11-13T06:27:07.993Z,3.20
2022-11-13T06:29:36.074Z,3.40
2022-11-13T06:32:04.242Z,3.30
2022-11-13T06:34:32.324Z,3.30
2022-11-13T06:37:01.752Z,3.40
2022-11-13T06:39:30.190Z,3.30
2022-11-13T06:41:58.224Z,3.40
2022-11-13T06:44:27.701Z,3.20
2022-11-13T06:46:55.977Z,3.10
2022-11-13T06:49:24.040Z,3.20
2022-11-13T06:51:52.224Z,3.30
2022-11-13T06:54:20.303Z,3.30
2022-11-13T06:56:48.502Z,3.20
2022-11-13T06:59:19.671Z,3.20
2022-11-13T07:01:51.771Z,3.00
2022-11-13T07:04:19.886Z,3.00
2022-11-13T07:06:47.989Z,3.10
2022-11-13T07:09:16.365Z,3.20
2022-11-13T07:11:44.427Z,3.00
2022-11-13T07:14:13.003Z,2.80
2022-11-13T07:17:07.428Z,2.90
2022-11-13T07:19:30.660Z,3.20
2022-11-13T07:22:01.515Z,3.10
2022-11-13T07:24:29.699Z,3.00
2022-11-13T07:26:57.777Z,3.00
2022-11-13T07:29:28.204Z,3.10
2022-11-13T07:31:56.305Z,3.10
2022-11-13T07:34:24.565Z,3.10
2022-11-13T07:36:55.799Z,3.10
2022-11-13T07:39:24.143Z,3.10
2022-11-13T07:41:52.234Z,3.20
2022-11-13T07:44:47.910Z,3.20
2022-11-13T07:47:08.641Z,3.20
2022-11-13T07:49:36.925Z,3.20
2022-11-13T07:52:06.853Z,3.20
2022-11-13T07:54:35.106Z,3.20
2022-11-13T07:57:03.165Z,3.30
2022-11-13T07:59:31.244Z,3.40
2022-11-13T08:01:59.416Z,3.30
2022-11-13T08:04:28.509Z,3.30
2022-11-13T08:06:56.602Z,3.50
2022-11-13T08:09:26.233Z,3.50
2022-11-13T08:11:57.205Z,3.60
2022-11-13T08:14:25.261Z,3.60
2022-11-13T08:16:53.385Z,3.70
2022-11-13T08:19:21.458Z,3.70
2022-11-13T08:21:49.541Z,3.70
2022-11-13T08:24:20.585Z,3.60
2022-11-13T08:26:50.281Z,3.80
2022-11-13T08:29:18.352Z,3.90
2022-11-13T08:31:48.676Z,3.90
2022-11-13T08:34:16.723Z,3.90
2022-11-13T08:36:44.815Z,3.90
2022-11-13T08:39:13.189Z,4.00
2022-11-13T08:41:41.473Z,4.10
2022-11-13T08:44:12.839Z,4.10
2022-11-13T08:46:41.013Z,4.10
2022-11-13T08:49:09.090Z,4.30
2022-11-13T08:51:37.335Z,4.40
2022-11-13T08:54:05.672Z,4.40
2022-11-13T08:56:33.783Z,4.40
2022-11-13T08:59:02.087Z,4.50
2022-11-13T09:01:31.733Z,4.50
2022-11-13T09:04:00.439Z,4.50
2022-11-13T09:06:28.534Z,4.60
2022-11-13T09:08:56.768Z,4.50
2022-11-13T09:11:27.796Z,4.60
2022-11-13T09:13:55.929Z,4.70
2022-11-13T09:16:24.030Z,4.80
2022-11-13T09:18:53.649Z,4.80
2022-11-13T09:21:21.780Z,4.80
2022-11-13T09:23:50.532Z,5.00
2022-11-13T09:26:18.762Z,5.00
2022-11-13T09:28:46.920Z,5.00
2022-11-13T09:31:15.237Z,5.10
2022-11-13T09:33:43.289Z,5.30
2022-11-13T09:36:14.380Z,5.40
2022-11-13T09:38:42.536Z,5.40
2022-11-13T09:41:12.517Z,5.50
2022-11-13T09:43:42.444Z,5.50
2022-11-13T09:46:14.388Z,5.50
2022-11-13T09:48:45.119Z,5.60
2022-11-13T09:51:16.555Z,5.60
2022-11-13T09:53:44.898Z,5.60
2022-11-13T09:56:28.551Z,5.60
2022-11-13T09:59:02.637Z,5.60
2022-11-13T10:01:35.013Z,5.50
2022-11-13T10:04:05.815Z,5.50
2022-11-13T10:06:42.388Z,5.60
2022-11-13T10:09:15.597Z,5.80
2022-11-13T10:11:45.880Z,5.90
2022-11-13T10:14:17.123Z,5.90
2022-11-13T10:16:47.197Z,6.00
2022-11-13T10:19:17.755Z,6.10
2022-11-13T10:21:52.213Z,6.10
2022-11-13T10:24:26.448Z,6.20
2022-11-13T10:26:56.389Z,6.30
2022-11-13T10:29:24.784Z,6.40
2022-11-13T10:31:53.866Z,6.40
2022-11-13T10:34:22.102Z,6.50
2022-11-13T10:36:55.776Z,6.50
2022-11-13T10:39:24.044Z,6.60
2022-11-13T10:41:53.022Z,6.70
2022-11-13T10:44:26.324Z,6.80
2022-11-13T10:47:05.007Z,6.80
2022-11-13T10:49:33.280Z,6.80
2022-11-13T10:52:08.442Z,6.90
2022-11-13T10:54:39.185Z,7.10
2022-11-13T10:57:21.426Z,7.20
2022-11-13T10:59:49.576Z,7.20
2022-11-13T11:02:19.071Z,7.20
2022-11-13T11:04:49.207Z,7.20
2022-11-13T11:07:21.324Z,7.30
2022-11-13T11:09:50.181Z,7.40
2022-11-13T11:12:19.216Z,7.60
2022-11-13T11:15:11.548Z,7.60
2022-11-13T11:17:42.653Z,7.60
2022-11-13T11:20:21.720Z,7.70
2022-11-13T11:22:54.247Z,7.60
2022-11-13T11:25:33.649Z,7.70
2022-11-13T11:28:03.609Z,7.70
2022-11-13T11:30:35.659Z,7.80
2022-11-13T11:33:08.136Z,7.80
2022-11-13T11:35:40.173Z,7.90
2022-11-13T11:38:12.968Z,7.80
2022-11-13T11:40:42.353Z,7.80
2022-11-13T11:43:14.633Z,7.80
2022-11-13T11:45:44.272Z,7.80
2022-11-13T11:48:13.893Z,7.80
2022-11-13T11:50:46.477Z,7.80
2022-11-13T11:53:18.294Z,7.80
2022-11-13T11:55:51.935Z,7.70
2022-11-13T11:58:30.651Z,7.80
2022-11-13T12:01:04.144Z,7.90
2022-11-13T12:03:50.609Z,7.90
2022-11-13T12:06:21.857Z,7.80
2022-11-13T12:08:57.230Z,7.80
2022-11-13T12:11:28.369Z,7.70
2022-11-13T12:14:00.940Z,7.70
2022-11-13T12:16:31.242Z,7.70
2022-11-13T12:19:03.789Z,7.60
2022-11-13T12:21:35.881Z,7.60
2022-11-13T12:24:13.252Z,7.60
2022-11-13T12:26:45.061Z,7.60
2022-11-13T12:29:19.361Z,7.50
2022-11-13T12:31:54.310Z,7.50
2022-11-13T12:34:27.044Z,7.50
2022-11-13T12:36:55.834Z,7.50
2022-11-13T12:39:34.661Z,7.40
2022-11-13T12:42:08.157Z,7.40
2022-11-13T12:44:42.234Z,7.40
2022-11-13T12:47:10.671Z,7.30
2022-11-13T12:49:38.740Z,7.30
2022-11-13T12:52:18.224Z,7.30
2022-11-13T12:54:50.266Z,7.20
2022-11-13T12:57:20.596Z,7.10
2022-11-13T12:59:51.154Z,7.10
2022-11-13T13:02:31.814Z,7.10
2022-11-13T13:05:08.064Z,7.10
2022-11-13T13:07:46.669Z,7.00
2022-11-13T13:10:21.198Z,6.90
2022-11-13T13:12:54.041Z,6.80
2022-11-13T13:15:30.089Z,6.80
2022-11-13T13:18:10.394Z,6.70
2022-11-13T13:20:39.121Z,6.70
2022-11-13T13:23:08.828Z,6.60
2022-11-13T13:25:38.833Z,6.60
2022-11-13T13:28:19.624Z,6.60
2022-11-13T13:30:50.529Z,6.50
2022-11-13T13:33:22.027Z,6.40
2022-11-13T13:35:53.049Z,6.30
2022-11-13T13:38:25.629Z,6.30
2022-11-13T13:41:04.477Z,6.30
2022-11-13T13:43:39.133Z,6.10
2022-11-13T13:46:11.616Z,6.10
2022-11-13T13:48:42.472Z,6.10
2022-11-13T13:51:17.100Z,6.00
2022-11-13T13:53:45.508Z,6.00
2022-11-13T13:56:15.393Z,6.00
2022-11-13T13:58:43.937Z,5.90
2022-11-13T14:01:19.419Z,5.80
2022-11-13T14:03:48.182Z,5.80
2022-11-13T14:06:21.028Z,5.80
2022-11-13T14:08:49.773Z,5.70
2022-11-13T14:11:20.399Z,5.60
2022-11-13T14:13:48.461Z,5.50
2022-11-13T14:16:17.030Z,5.30
2022-11-13T14:18:45.075Z,5.40
2022-11-13T14:21:16.308Z,5.30
2022-11-13T14:23:46.090Z,5.20
2022-11-13T14:26:14.587Z,5.20
2022-11-13T14:28:49.792Z,5.20
2022-11-13T14:31:21.256Z,5.10
2022-11-13T14:33:59.196Z,5.10
2022-11-13T14:36:30.080Z,5.00
2022-11-13T14:38:58.800Z,5.00
2022-11-13T14:41:31.101Z,4.90
2022-11-13T14:44:00.769Z,4.90
2022-11-13T14:46:30.519Z,4.80
2022-11-13T14:48:59.025Z,4.80
2022-11-13T14:51:28.460Z,4.70
2022-11-13T14:54:02.949Z,4.80
2022-11-13T14:56:35.905Z,4.80
2022-11-13T14:59:19.537Z,4.70
2022-11-13T15:01:54.934Z,4.60
2022-11-13T15:04:23.337Z,4.50
2022-11-13T15:06:55.580Z,4.50
2022-11-13T15:09:24.428Z,4.50
2022-11-13T15:11:52.808Z,4.40
2022-11-13T15:14:22.670Z,4.40
2022-11-13T15:16:51.981Z,4.40
2022-11-13T15:19:21.893Z,4.40
2022-11-13T15:22:20.435Z,4.40
2022-11-13T15:24:38.253Z,4.30
2022-11-13T15:27:06.998Z,4.20
2022-11-13T15:29:36.554Z,4.20
2022-11-13T15:32:05.012Z,4.20
2022-11-13T15:34:33.051Z,4.10
2022-11-13T15:37:01.278Z,4.10
2022-11-13T15:39:29.371Z,4.00
2022-11-13T15:41:58.537Z,4.00
2022-11-13T15:44:26.794Z,4.00
2022-11-13T15:46:56.225Z,3.90
2022-11-13T15:49:24.553Z,3.80
2022-11-13T15:51:52.612Z,3.80
2022-11-13T15:54:24.468Z,3.80
2022-11-13T15:56:52.555Z,3.80
2022-11-13T15:59:20.606Z,3.70
2022-11-13T16:01:51.735Z,3.70
2022-11-13T16:04:30.140Z,3.60
2022-11-13T16:07:07.374Z,3.50
2022-11-13T16:09:35.649Z,3.50
2022-11-13T16:12:03.810Z,3.50
2022-11-13T16:14:31.844Z,3.50
2022-11-13T16:17:00.270Z,3.60
2022-11-13T16:19:29.912Z,3.70
2022-11-13T16:21:57.972Z,3.70
2022-11-13T16:24:26.248Z,3.50
2022-11-13T16:26:56.352Z,3.60
2022-11-13T16:29:25.063Z,3.40
2022-11-13T16:31:53.701Z,3.40
2022-11-13T16:34:23.451Z,3.30
2022-11-13T16:36:55.864Z,3.30
2022-11-13T16:39:23.943Z,3.30
2022-11-13T16:41:54.084Z,3.30
2022-11-13T16:44:22.198Z,3.30
2022-11-13T16:46:50.341Z,3.30
2022-11-13T16:49:19.553Z,3.30
2022-11-13T16:51:47.856Z,3.30
2022-11-13T16:54:17.533Z,3.20
2022-11-13T16:56:46.180Z,3.20
2022-11-13T16:59:14.270Z,3.00
2022-11-13T17:01:42.423Z,3.10
2022-11-13T17:04:12.544Z,3.20
2022-11-13T17:06:40.969Z,3.10
2022-11-13T17:09:09.288Z,3.00
2022-11-13T17:11:38.847Z,3.00
2022-11-13T17:14:06.929Z,3.10
2022-11-13T17:16:35.022Z,3.10
2022-11-13T17:19:03.209Z,3.20
2022-11-13T17:21:31.371Z,3.20
2022-11-13T17:24:01.070Z,3.20
2022-11-13T17:26:31.740Z,3.20
2022-11-13T17:29:02.125Z,3.20
2022-11-13T17:31:30.399Z,3.10
2022-11-13T17:33:58.497Z,3.20
2022-11-13T17:36:26.800Z,3.40
2022-11-13T17:38:55.338Z,3.50
2022-11-13T17:41:23.420Z,3.50
2022-11-13T17:43:52.377Z,3.40
2022-11-13T17:46:23.190Z,3.30
2022-11-13T17:48:51.436Z,3.40
2022-11-13T17:51:19.525Z,3.50
2022-11-13T17:53:47.624Z,3.60
2022-11-13T17:56:15.894Z,3.60
2022-11-13T17:58:44.837Z,3.70
2022-11-13T18:01:16.889Z,3.70
2022-11-13T18:03:46.433Z,3.70
2022-11-13T18:06:18.467Z,3.80
2022-11-13T18:08:47.853Z,4.00
2022-11-13T18:11:17.123Z,3.80
2022-11-13T18:13:45.458Z,3.70
2022-11-13T18:16:14.713Z,3.70
2022-11-13T18:18:43.143Z,3.90
2022-11-13T18:21:28.971Z,4.00
2022-11-13T18:23:58.869Z,3.90
2022-11-13T18:26:27.692Z,3.10
2022-11-13T18:28:56.073Z,3.70
2022-11-13T18:31:24.488Z,4.00
2022-11-13T18:33:52.587Z,4.10
2022-11-13T18:36:22.080Z,4.00
2022-11-13T18:38:50.393Z,3.60
2022-11-13T18:41:19.412Z,3.80
2022-11-13T18:43:48.394Z,3.90
2022-11-13T18:46:17.296Z,4.10
2022-11-13T18:48:46.043Z,4.10
2022-11-13T18:51:16.900Z,3.90
2022-11-13T18:53:48.511Z,3.70
2022-11-13T18:56:17.616Z,3.70
2022-11-13T18:58:46.473Z,3.70
2022-11-13T19:01:21.884Z,3.50
2022-11-13T19:04:08.673Z,3.50
2022-11-13T19:06:39.863Z,3.60
2022-11-13T19:09:13.880Z,3.70
2022-11-13T19:11:44.185Z,3.80
2022-11-13T19:14:14.416Z,3.70
2022-11-13T19:16:42.507Z,3.70
2022-11-13T19:19:15.880Z,3.70
2022-11-13T19:21:43.972Z,3.70
2022-11-13T19:24:15.038Z,3.50
2022-11-13T19:26:43.757Z,3.50
2022-11-13T19:29:12.086Z,3.40
2022-11-13T19:31:40.558Z,3.50
2022-11-13T19:34:09.416Z,3.60
2022-11-13T19:36:38.184Z,3.70
2022-11-13T19:39:06.499Z,3.60
2022-11-13T19:41:35.938Z,3.60
2022-11-13T19:44:04.222Z,3.70
2022-11-13T19:46:36.460Z,3.80
2022-11-13T19:49:04.524Z,3.80
2022-11-13T19:51:32.733Z,3.90
2022-11-13T19:54:01.199Z,4.30
2022-11-13T19:56:29.491Z,4.00
2022-11-13T19:58:59.021Z,4.10
2022-11-13T20:01:27.811Z,4.00
2022-11-13T20:03:56.522Z,3.90
2022-11-13T20:06:25.107Z,4.00
2022-11-13T20:08:53.312Z,4.10
2022-11-13T20:11:21.440Z,4.10
2022-11-13T20:13:49.508Z,4.00
2022-11-13T20:16:21.169Z,4.10
2022-11-13T20:18:49.730Z,4.20
2022-11-13T20:21:18.962Z,4.10
2022-11-13T20:23:47.298Z,4.10
2022-11-13T20:26:16.911Z,4.00
2022-11-13T20:28:45.008Z,4.10
2022-11-13T20:31:16.376Z,4.20
2022-11-13T20:33:46.261Z,4.10
2022-11-13T20:36:14.810Z,3.90
2022-11-13T20:38:44.256Z,4.00
2022-11-13T20:41:12.545Z,4.10
2022-11-13T20:43:40.625Z,4.30
2022-11-13T20:46:13.166Z,4.40
2022-11-13T20:48:41.445Z,4.60
2022-11-13T20:51:12.133Z,4.60
2022-11-13T20:53:40.216Z,4.60
2022-11-13T20:56:08.824Z,4.80
2022-11-13T20:58:36.896Z,4.90
2022-11-13T21:01:05.742Z,5.00
2022-11-13T21:03:38.510Z,4.90
2022-11-13T21:06:08.569Z,5.00
2022-11-13T21:08:38.208Z,5.00
2022-11-13T21:11:07.207Z,4.90
2022-11-13T21:13:35.548Z,4.80
2022-11-13T21:16:05.640Z,4.80
2022-11-13T21:18:33.912Z,5.00
2022-11-13T21:21:05.506Z,5.00
2022-11-13T21:23:33.725Z,4.80
2022-11-13T21:26:03.698Z,4.90
2022-11-13T21:28:33.659Z,4.80
2022-11-13T21:31:02.711Z,5.00
2022-11-13T21:33:31.040Z,5.30
2022-11-13T21:36:04.406Z,5.20
2022-11-13T21:38:32.630Z,5.20
2022-11-13T21:41:14.715Z,5.10
2022-11-13T21:43:44.144Z,4.90
2022-11-13T21:46:12.628Z,4.80
2022-11-13T21:48:43.166Z,4.80
2022-11-13T21:51:11.602Z,4.80
2022-11-13T21:53:39.889Z,4.70
2022-11-13T21:56:12.659Z,4.80
2022-11-13T21:58:45.070Z,4.80
2022-11-13T22:01:13.895Z,4.80
2022-11-13T22:03:42.228Z,4.90
2022-11-13T22:06:13.983Z,4.60
2022-11-13T22:08:42.172Z,4.50
2022-11-13T22:11:10.417Z,4.30
2022-11-13T22:13:39.034Z,4.40
2022-11-13T22:16:09.593Z,4.30
2022-11-13T22:18:37.862Z,4.40
2022-11-13T22:21:06.902Z,4.40
2022-11-13T22:23:35.525Z,4.50
2022-11-13T22:26:05.020Z,4.50
2022-11-13T22:28:33.581Z,4.60
2022-11-13T22:31:01.994Z,4.80
2022-11-13T22:33:32.347Z,4.90
2022-11-13T22:36:04.006Z,5.10
2022-11-13T22:38:32.339Z,5.00
2022-11-13T22:41:04.482Z,5.10
2022-11-13T22:43:36.564Z,5.10
2022-11-13T22:46:05.702Z,5.10
2022-11-13T22:48:35.518Z,5.20
2022-11-13T22:51:04.449Z,5.20
2022-11-13T22:53:32.587Z,5.30
2022-11-13T22:56:02.302Z,5.10
2022-11-13T22:58:30.719Z,4.90
2022-11-13T23:01:04.421Z,4.60
2022-11-13T23:03:32.606Z,4.40
2022-11-13T23:06:03.931Z,4.20
2022-11-13T23:08:32.557Z,4.10
2022-11-13T23:11:01.275Z,4.20
2022-11-13T23:13:29.412Z,4.30
2022-11-13T23:15:57.628Z,4.40
2022-11-13T23:18:26.054Z,4.40
2022-11-13T23:20:54.468Z,4.60
2022-11-13T23:23:23.978Z,4.80
2022-11-13T23:25:52.209Z,4.80
2022-11-13T23:28:20.490Z,5.10
2022-11-13T23:30:48.652Z,5.00
2022-11-13T23:33:19.037Z,4.90
2022-11-13T23:35:47.129Z,5.00
2022-11-13T23:38:15.319Z,4.90
2022-11-13T23:40:45.029Z,4.80
2022-11-13T23:43:13.467Z,4.90
2022-11-13T23:45:41.557Z,4.90
2022-11-13T23:48:09.613Z,5.00
2022-11-13T23:50:38.192Z,5.00
2022-11-13T23:53:06.400Z,4.90
2022-11-13T23:55:34.710Z,5.00
2022-11-13T23:58:07.494Z,5.10
